createdAt,value
2023-04-22T00:02:08.141Z,49.61
2023-04-22T00:04:41.800Z,49.69
2023-04-22T00:07:15.060Z,49.77
2023-04-22T00:09:47.435Z,49.71
2023-04-22T00:12:20.070Z,49.83
2023-04-22T00:14:52.780Z,49.93
2023-04-22T00:17:25.317Z,50.03
2023-04-22T00:19:57.940Z,50.07
2023-04-22T00:22:30.521Z,50.19
2023-04-22T00:25:02.823Z,50.32
2023-04-22T00:27:36.031Z,50.32
2023-04-22T00:30:11.091Z,50.48
2023-04-22T00:32:43.991Z,50.65
2023-04-22T00:35:16.537Z,50.76
2023-04-22T00:37:48.922Z,50.80
2023-04-22T00:40:21.848Z,50.96
2023-04-22T00:42:54.883Z,51.03
2023-04-22T00:45:29.065Z,50.96
2023-04-22T00:48:01.864Z,51.15
2023-04-22T00:50:35.009Z,51.12
2023-04-22T00:53:07.284Z,51.17
2023-04-22T00:55:39.513Z,51.17
2023-04-22T00:58:12.864Z,51.15
2023-04-22T01:00:45.451Z,51.27
2023-04-22T01:03:18.393Z,51.39
2023-04-22T01:05:52.651Z,51.49
2023-04-22T01:08:30.227Z,51.56
2023-04-22T01:11:03.588Z,51.60
2023-04-22T01:13:38.557Z,51.84
2023-04-22T01:16:12.147Z,51.76
2023-04-22T01:18:47.762Z,51.63
2023-04-22T01:21:20.704Z,51.64
2023-04-22T01:23:54.717Z,51.66
2023-04-22T01:26:29.621Z,51.48
2023-04-22T01:29:03.043Z,51.69
2023-04-22T01:31:36.439Z,51.84
2023-04-22T01:34:10.627Z,52.00
2023-04-22T01:36:42.996Z,51.93
2023-04-22T01:39:16.123Z,52.08
2023-04-22T01:41:49.219Z,52.23
2023-04-22T01:44:21.949Z,52.02
2023-04-22T01:46:55.672Z,51.94
2023-04-22T01:49:28.355Z,52.08
2023-04-22T01:52:01.567Z,52.31
2023-04-22T01:54:37.093Z,52.47
2023-04-22T01:57:14.441Z,52.55
2023-04-22T01:59:47.881Z,52.57
2023-04-22T02:02:20.856Z,52.54
2023-04-22T02:04:53.562Z,52.27
2023-04-22T02:07:27.031Z,52.27
2023-04-22T02:09:59.159Z,52.42
2023-04-22T02:12:31.586Z,52.67
2023-04-22T02:15:04.589Z,52.71
2023-04-22T02:17:42.478Z,52.64
2023-04-22T02:20:15.882Z,52.61
2023-04-22T02:22:50.939Z,52.62
2023-04-22T02:25:25.215Z,52.64
2023-04-22T02:27:57.632Z,52.68
2023-04-22T02:30:30.470Z,52.95
2023-04-22T02:33:04.134Z,53.32
2023-04-22T02:35:45.363Z,53.57
2023-04-22T02:38:22.056Z,53.74
2023-04-22T02:40:54.697Z,53.63
2023-04-22T02:43:27.112Z,53.47
2023-04-22T02:45:59.750Z,53.27
2023-04-22T02:48:32.286Z,53.28
2023-04-22T02:51:04.501Z,53.48
2023-04-22T02:53:37.418Z,53.57
2023-04-22T02:56:10.410Z,53.73
2023-04-22T02:58:42.787Z,53.57
2023-04-22T03:01:15.702Z,53.49
2023-04-22T03:03:48.760Z,53.48
2023-04-22T03:06:26.111Z,53.47
2023-04-22T03:08:58.432Z,53.58
2023-04-22T03:11:30.837Z,53.74
2023-04-22T03:14:03.223Z,53.81
2023-04-22T03:16:36.429Z,54.07
2023-04-22T03:19:10.049Z,54.06
2023-04-22T03:21:42.958Z,53.99
2023-04-22T03:24:15.264Z,54.07
2023-04-22T03:26:50.640Z,54.31
2023-04-22T03:29:23.114Z,54.56
2023-04-22T03:31:55.421Z,54.60
2023-04-22T03:34:29.838Z,54.61
2023-04-22T03:37:02.229Z,54.63
2023-04-22T03:39:37.255Z,54.69
2023-04-22T03:42:11.621Z,54.60
2023-04-22T03:44:46.280Z,54.47
2023-04-22T03:47:21.437Z,54.68
2023-04-22T03:49:59.797Z,54.87
2023-04-22T03:52:32.255Z,54.72
2023-04-22T03:55:04.564Z,54.70
2023-04-22T03:57:37.669Z,54.68
2023-04-22T04:00:12.667Z,54.98
2023-04-22T04:02:48.311Z,54.74
2023-04-22T04:05:22.225Z,54.80
2023-04-22T04:07:54.704Z,54.79
2023-04-22T04:10:29.158Z,54.91
2023-04-22T04:13:01.747Z,54.99
2023-04-22T04:15:37.770Z,54.94
2023-04-22T04:18:11.828Z,55.21
2023-04-22T04:20:44.252Z,55.02
2023-04-22T04:23:16.765Z,55.15
2023-04-22T04:25:50.063Z,56.03
2023-04-22T04:28:23.520Z,57.10
2023-04-22T04:30:55.942Z,57.35
2023-04-22T04:33:28.883Z,55.91
2023-04-22T04:36:02.051Z,55.18
2023-04-22T04:38:36.691Z,54.95
2023-04-22T04:41:10.903Z,55.46
2023-04-22T04:43:46.664Z,56.93
2023-04-22T04:46:37.996Z,58.44
2023-04-22T04:49:12.813Z,58.48
2023-04-22T04:52:01.328Z,58.07
2023-04-22T04:54:34.329Z,57.97
2023-04-22T04:57:07.888Z,57.46
2023-04-22T04:59:41.656Z,57.48
2023-04-22T05:02:14.540Z,57.14
2023-04-22T05:04:48.056Z,56.33
2023-04-22T05:07:20.733Z,55.08
2023-04-22T05:09:53.896Z,53.93
2023-04-22T05:12:26.883Z,53.03
2023-04-22T05:14:59.522Z,52.40
2023-04-22T05:17:32.996Z,53.47
2023-04-22T05:20:09.756Z,54.33
2023-04-22T05:22:43.400Z,53.88
2023-04-22T05:25:16.252Z,53.99
2023-04-22T05:27:55.558Z,52.60
2023-04-22T05:30:29.599Z,52.29
2023-04-22T05:33:01.985Z,51.60
2023-04-22T05:35:34.343Z,50.88
2023-04-22T05:38:07.012Z,50.15
2023-04-22T05:40:41.052Z,50.04
2023-04-22T05:43:16.983Z,49.64
2023-04-22T05:45:54.142Z,49.41
2023-04-22T05:48:26.842Z,49.81
2023-04-22T05:51:04.721Z,49.62
2023-04-22T05:53:37.546Z,50.07
2023-04-22T05:56:10.601Z,50.23
2023-04-22T05:58:42.968Z,50.26
2023-04-22T06:01:20.950Z,49.47
2023-04-22T06:04:11.937Z,48.75
2023-04-22T06:06:44.340Z,48.31
2023-04-22T06:09:19.270Z,48.29
2023-04-22T06:11:53.295Z,48.63
2023-04-22T06:14:27.727Z,48.43
2023-04-22T06:17:09.890Z,48.71
2023-04-22T06:19:42.230Z,48.85
2023-04-22T06:22:14.798Z,48.95
2023-04-22T06:24:48.319Z,49.00
2023-04-22T06:27:21.392Z,49.24
2023-04-22T06:29:53.450Z,49.84
2023-04-22T06:32:26.145Z,49.56
2023-04-22T06:34:58.936Z,49.23
2023-04-22T06:37:33.335Z,49.48
2023-04-22T06:40:08.517Z,50.38
2023-04-22T06:42:59.984Z,50.68
2023-04-22T06:45:52.542Z,50.99
2023-04-22T06:49:03.127Z,51.07
2023-04-22T06:51:54.250Z,50.97
2023-04-22T06:54:26.543Z,50.27
2023-04-22T06:56:59.178Z,50.03
2023-04-22T06:59:31.236Z,50.21
2023-04-22T07:02:03.680Z,50.26
2023-04-22T07:04:37.621Z,50.05
2023-04-22T07:07:10.150Z,50.00
2023-04-22T07:09:42.558Z,49.68
2023-04-22T07:12:15.104Z,49.67
2023-04-22T07:14:47.832Z,49.70
2023-04-22T07:17:22.536Z,49.46
2023-04-22T07:19:54.817Z,49.35
2023-04-22T07:22:26.905Z,49.04
2023-04-22T07:24:58.978Z,48.70
2023-04-22T07:27:31.031Z,48.85
2023-04-22T07:30:03.303Z,48.63
2023-04-22T07:32:35.382Z,48.15
2023-04-22T07:35:08.749Z,47.97
2023-04-22T07:37:41.052Z,47.88
2023-04-22T07:40:14.764Z,47.76
2023-04-22T07:42:48.385Z,47.69
2023-04-22T07:45:20.640Z,48.01
2023-04-22T07:47:52.920Z,47.94
2023-04-22T07:50:25.385Z,47.92
2023-04-22T07:52:57.461Z,47.97
2023-04-22T07:55:29.827Z,48.03
2023-04-22T07:58:06.707Z,48.14
2023-04-22T08:00:39.613Z,48.32
2023-04-22T08:03:12.207Z,47.98
2023-04-22T08:05:44.648Z,47.98
2023-04-22T08:08:16.875Z,47.82
2023-04-22T08:10:49.047Z,47.64
2023-04-22T08:13:21.323Z,47.74
2023-04-22T08:15:54.160Z,47.61
2023-04-22T08:18:26.303Z,47.44
2023-04-22T08:20:58.910Z,47.46
2023-04-22T08:23:31.510Z,47.19
2023-04-22T08:26:04.748Z,47.01
2023-04-22T08:28:38.659Z,46.66
2023-04-22T08:31:13.250Z,46.52
2023-04-22T08:33:45.195Z,46.50
2023-04-22T08:36:22.876Z,47.18
2023-04-22T08:38:56.709Z,47.14
2023-04-22T08:41:29.916Z,47.21
2023-04-22T08:44:04.395Z,47.50
2023-04-22T08:46:41.941Z,47.47
2023-04-22T08:49:16.154Z,47.47
2023-04-22T08:51:50.495Z,47.06
2023-04-22T08:54:22.623Z,47.11
2023-04-22T08:56:57.900Z,46.68
2023-04-22T08:59:32.920Z,46.26
2023-04-22T09:02:06.664Z,45.99
2023-04-22T09:04:39.249Z,46.01
2023-04-22T09:07:12.140Z,46.22
2023-04-22T09:09:48.227Z,45.99
2023-04-22T09:12:20.421Z,45.43
2023-04-22T09:14:52.389Z,45.19
2023-04-22T09:17:33.927Z,45.16
2023-04-22T09:20:09.064Z,44.80
2023-04-22T09:22:43.988Z,44.78
2023-04-22T09:25:20.785Z,44.89
2023-04-22T09:27:54.329Z,44.54
2023-04-22T09:30:28.753Z,44.34
2023-04-22T09:33:05.115Z,44.50
2023-04-22T09:35:38.549Z,44.04
2023-04-22T09:38:12.972Z,44.20
2023-04-22T09:40:48.728Z,43.86
2023-04-22T09:43:22.013Z,43.62
2023-04-22T09:45:54.276Z,43.33
2023-04-22T09:48:26.822Z,43.44
2023-04-22T09:50:59.049Z,43.54
2023-04-22T09:53:38.581Z,43.55
2023-04-22T09:56:11.513Z,43.27
2023-04-22T09:58:46.202Z,42.47
2023-04-22T10:01:19.244Z,42.26
2023-04-22T10:03:52.656Z,42.55
2023-04-22T10:06:28.938Z,42.34
2023-04-22T10:09:02.772Z,42.39
2023-04-22T10:11:43.262Z,42.43
2023-04-22T10:14:17.509Z,41.93
2023-04-22T10:16:52.584Z,41.99
2023-04-22T10:19:27.908Z,41.71
2023-04-22T10:22:02.482Z,41.24
2023-04-22T10:24:42.339Z,41.14
2023-04-22T10:27:14.910Z,41.20
2023-04-22T10:29:51.095Z,40.84
2023-04-22T10:32:34.255Z,40.75
2023-04-22T10:35:16.608Z,40.81
2023-04-22T10:37:49.585Z,40.73
2023-04-22T10:40:23.420Z,40.69
2023-04-22T10:43:03.664Z,40.83
2023-04-22T10:45:39.611Z,40.62
2023-04-22T10:48:11.990Z,40.86
2023-04-22T10:50:44.971Z,40.72
2023-04-22T10:53:44.071Z,40.54
2023-04-22T10:56:21.363Z,40.25
2023-04-22T10:58:58.565Z,40.48
2023-04-22T11:01:36.875Z,40.37
2023-04-22T11:04:24.517Z,40.28
2023-04-22T11:07:17.393Z,40.35
2023-04-22T11:09:53.600Z,40.48
2023-04-22T11:12:46.707Z,40.22
2023-04-22T11:15:22.426Z,39.84
2023-04-22T11:17:56.387Z,39.44
2023-04-22T11:20:32.594Z,39.70
2023-04-22T11:23:05.891Z,39.60
2023-04-22T11:25:41.510Z,39.78
2023-04-22T11:28:15.762Z,39.56
2023-04-22T11:30:48.061Z,39.57
2023-04-22T11:33:22.868Z,39.51
2023-04-22T11:35:55.653Z,39.45
2023-04-22T11:38:28.747Z,39.37
2023-04-22T11:41:02.047Z,39.44
2023-04-22T11:43:34.404Z,39.27
2023-04-22T11:46:09.061Z,39.20
2023-04-22T11:48:41.906Z,39.14
2023-04-22T11:51:14.885Z,39.16
2023-04-22T11:53:54.748Z,39.03
2023-04-22T11:56:28.242Z,39.16
2023-04-22T11:59:01.675Z,39.15
2023-04-22T12:01:38.936Z,39.15
2023-04-22T12:04:13.991Z,38.96
2023-04-22T12:06:47.702Z,38.93
2023-04-22T12:09:20.083Z,38.90
2023-04-22T12:11:54.942Z,38.83
2023-04-22T12:14:36.728Z,38.78
2023-04-22T12:17:12.551Z,38.39
2023-04-22T12:19:54.908Z,38.05
2023-04-22T12:22:33.730Z,38.38
2023-04-22T12:25:12.501Z,38.65
2023-04-22T12:27:44.612Z,38.69
2023-04-22T12:30:18.057Z,38.02
2023-04-22T12:32:50.281Z,38.00
2023-04-22T12:35:23.099Z,38.10
2023-04-22T12:37:55.353Z,38.37
2023-04-22T12:40:28.032Z,38.37
2023-04-22T12:43:00.107Z,38.41
2023-04-22T12:45:32.618Z,38.20
2023-04-22T12:48:05.298Z,37.93
2023-04-22T12:50:38.136Z,37.98
2023-04-22T12:53:10.516Z,37.95
2023-04-22T12:55:44.677Z,37.95
2023-04-22T12:58:18.946Z,37.78
2023-04-22T13:00:51.623Z,38.04
2023-04-22T13:03:24.026Z,38.01
2023-04-22T13:05:56.982Z,38.07
2023-04-22T13:08:30.896Z,37.94
2023-04-22T13:11:03.191Z,37.99
2023-04-22T13:13:43.897Z,38.06
2023-04-22T13:17:19.124Z,37.97
2023-04-22T13:20:16.449Z,37.88
2023-04-22T13:23:09.927Z,37.70
2023-04-22T13:26:14.893Z,37.95
2023-04-22T13:29:17.948Z,37.63
2023-04-22T13:32:11.280Z,37.78
2023-04-22T13:34:57.811Z,37.82
2023-04-22T13:37:49.465Z,37.77
2023-04-22T13:40:55.520Z,37.77
2023-04-22T13:43:51.989Z,37.67
2023-04-22T13:46:45.930Z,37.67
2023-04-22T13:49:39.096Z,37.69
2023-04-22T13:52:32.355Z,37.46
2023-04-22T13:55:26.963Z,37.76
2023-04-22T13:58:19.690Z,37.70
2023-04-22T14:01:12.477Z,37.74
2023-04-22T14:04:05.405Z,37.61
2023-04-22T14:06:37.885Z,37.51
2023-04-22T14:09:41.162Z,37.44
2023-04-22T14:12:36.233Z,37.44
2023-04-22T14:15:28.725Z,37.46
2023-04-22T14:18:43.011Z,37.43
2023-04-22T14:21:36.362Z,37.53
2023-04-22T14:24:32.599Z,37.51
2023-04-22T14:27:33.847Z,37.30
2023-04-22T14:30:27.040Z,37.37
2023-04-22T14:33:21.184Z,37.50
2023-04-22T14:36:14.451Z,37.33
2023-04-22T14:39:07.320Z,37.19
2023-04-22T14:41:51.144Z,37.10
2023-04-22T14:44:44.345Z,37.27
2023-04-22T14:47:37.992Z,37.26
2023-04-22T14:50:36.269Z,37.19
2023-04-22T14:53:36.642Z,37.36
2023-04-22T14:56:31.117Z,37.32
2023-04-22T14:59:25.767Z,37.22
2023-04-22T15:02:18.470Z,36.97
2023-04-22T15:05:12.901Z,36.89
2023-04-22T15:08:06.705Z,37.03
2023-04-22T15:11:00.075Z,37.06
2023-04-22T15:13:53.509Z,36.95
2023-04-22T15:16:46.798Z,36.83
2023-04-22T15:19:40.857Z,36.86
2023-04-22T15:22:34.843Z,36.72
2023-04-22T15:25:27.634Z,36.78
2023-04-22T15:28:42.892Z,36.90
2023-04-22T15:31:56.922Z,36.91
2023-04-22T15:34:50.182Z,36.76
2023-04-22T15:37:43.656Z,36.67
2023-04-22T15:40:36.588Z,36.65
2023-04-22T15:43:34.175Z,36.75
2023-04-22T15:46:33.490Z,36.88
2023-04-22T15:49:26.992Z,36.80
2023-04-22T15:52:20.105Z,36.80
2023-04-22T15:55:04.476Z,36.98
2023-04-22T15:57:47.247Z,36.93
2023-04-22T16:00:41.674Z,36.94
2023-04-22T16:03:35.564Z,36.87
2023-04-22T16:06:28.330Z,36.87
2023-04-22T16:09:21.759Z,36.69
2023-04-22T16:12:15.054Z,36.78
2023-04-22T16:15:09.583Z,36.75
2023-04-22T16:18:04.869Z,36.86
2023-04-22T16:20:58.015Z,36.81
2023-04-22T16:23:53.532Z,36.85
2023-04-22T16:26:46.041Z,37.00
2023-04-22T16:29:39.296Z,37.01
2023-04-22T16:32:32.699Z,37.00
2023-04-22T16:35:25.780Z,36.86
2023-04-22T16:38:19.384Z,37.06
2023-04-22T16:41:12.815Z,36.97
2023-04-22T16:44:06.089Z,36.96
2023-04-22T16:46:58.824Z,37.01
2023-04-22T16:49:51.656Z,37.02
2023-04-22T16:52:44.274Z,37.13
2023-04-22T16:55:38.106Z,37.05
2023-04-22T16:58:20.804Z,37.12
2023-04-22T17:01:06.522Z,37.15
2023-04-22T17:03:59.395Z,37.22
2023-04-22T17:06:43.811Z,37.23
2023-04-22T17:09:37.701Z,37.12
2023-04-22T17:12:20.523Z,37.21
2023-04-22T17:15:14.042Z,37.25
2023-04-22T17:18:08.116Z,37.13
2023-04-22T17:21:05.255Z,37.18
2023-04-22T17:23:59.586Z,37.47
2023-04-22T17:26:52.931Z,37.33
2023-04-22T17:29:46.711Z,37.76
2023-04-22T17:32:40.158Z,37.72
2023-04-22T17:35:34.548Z,37.88
2023-04-22T17:38:28.562Z,37.89
2023-04-22T17:41:21.830Z,38.02
2023-04-22T17:44:15.114Z,37.91
2023-04-22T17:47:07.985Z,38.16
2023-04-22T17:50:01.517Z,38.20
2023-04-22T17:52:53.924Z,38.31
2023-04-22T17:55:48.109Z,38.10
2023-04-22T17:58:54.038Z,38.07
2023-04-22T18:01:46.742Z,38.53
2023-04-22T18:04:39.564Z,38.60
2023-04-22T18:07:32.438Z,38.54
2023-04-22T18:10:25.100Z,38.61
2023-04-22T18:13:18.147Z,38.81
2023-04-22T18:16:10.620Z,38.74
2023-04-22T18:19:06.851Z,38.96
2023-04-22T18:22:00.607Z,39.23
2023-04-22T18:24:54.213Z,39.27
2023-04-22T18:27:47.764Z,39.38
2023-04-22T18:30:41.671Z,39.42
2023-04-22T18:33:36.082Z,39.41
2023-04-22T18:36:29.465Z,39.51
2023-04-22T18:39:22.816Z,39.59
2023-04-22T18:42:16.393Z,39.93
2023-04-22T18:45:13.407Z,39.89
2023-04-22T18:48:07.225Z,40.05
2023-04-22T18:51:01.686Z,39.90
2023-04-22T18:53:56.911Z,40.04
2023-04-22T18:56:50.236Z,40.27
2023-04-22T18:59:43.348Z,40.44
2023-04-22T19:02:38.586Z,40.55
2023-04-22T19:05:36.069Z,40.66
2023-04-22T19:08:29.457Z,40.59
2023-04-22T19:11:22.578Z,40.76
2023-04-22T19:14:16.477Z,40.92
2023-04-22T19:17:09.813Z,41.10
2023-04-22T19:20:02.678Z,41.08
2023-04-22T19:22:55.694Z,41.23
2023-04-22T19:25:39.114Z,41.47
2023-04-22T19:28:32.508Z,41.61
2023-04-22T19:31:25.641Z,41.74
2023-04-22T19:34:19.153Z,41.73
2023-04-22T19:37:13.125Z,41.88
2023-04-22T19:40:08.722Z,41.80
2023-04-22T19:43:01.109Z,41.97
2023-04-22T19:45:58.503Z,42.04
2023-04-22T19:48:52.848Z,42.07
2023-04-22T19:51:48.170Z,42.32
2023-04-22T19:54:42.605Z,42.53
2023-04-22T19:58:39.111Z,42.61
2023-04-22T20:00:53.425Z,42.65
2023-04-22T20:03:48.584Z,42.89
2023-04-22T20:06:42.373Z,43.23
2023-04-22T20:09:37.478Z,43.30
2023-04-22T20:12:31.019Z,43.14
2023-04-22T20:15:25.653Z,43.36
2023-04-22T20:18:12.235Z,43.30
2023-04-22T20:21:08.352Z,43.42
2023-04-22T20:24:04.371Z,43.57
2023-04-22T20:27:01.071Z,43.52
2023-04-22T20:29:57.055Z,43.68
2023-04-22T20:32:49.909Z,43.67
2023-04-22T20:35:48.295Z,43.85
2023-04-22T20:38:37.178Z,44.15
2023-04-22T20:41:30.859Z,44.16
2023-04-22T20:44:14.505Z,44.31
2023-04-22T20:47:08.171Z,44.21
2023-04-22T20:50:01.399Z,44.43
2023-04-22T20:52:53.824Z,44.48
2023-04-22T20:55:39.885Z,44.61
2023-04-22T20:58:34.037Z,44.74
2023-04-22T21:01:27.676Z,44.79
2023-04-22T21:04:24.893Z,44.72
2023-04-22T21:07:14.352Z,44.87
2023-04-22T21:10:08.704Z,45.11
2023-04-22T21:13:01.752Z,45.14
2023-04-22T21:15:52.920Z,45.20
2023-04-22T21:18:47.182Z,45.28
2023-04-22T21:21:42.977Z,45.32
2023-04-22T21:24:37.410Z,45.39
2023-04-22T21:27:22.804Z,45.50
2023-04-22T21:30:17.885Z,45.61
2023-04-22T21:33:10.303Z,45.88
2023-04-22T21:36:03.254Z,45.79
2023-04-22T21:38:57.095Z,45.87
2023-04-22T21:41:50.123Z,45.93
2023-04-22T21:44:49.948Z,46.10
2023-04-22T21:47:43.813Z,46.23
2023-04-22T21:50:37.366Z,46.16
2023-04-22T21:53:30.243Z,46.39
2023-04-22T21:56:22.979Z,46.44
2023-04-22T21:59:17.909Z,46.60
2023-04-22T22:02:11.293Z,46.74
2023-04-22T22:05:04.785Z,46.85
2023-04-22T22:07:48.974Z,46.80
2023-04-22T22:10:43.149Z,47.10
2023-04-22T22:13:35.598Z,47.12
2023-04-22T22:16:28.406Z,47.07
2023-04-22T22:19:29.217Z,47.16
2023-04-22T22:22:26.454Z,47.22
2023-04-22T22:25:15.236Z,47.32
2023-04-22T22:28:07.846Z,47.47
2023-04-22T22:31:02.659Z,47.45
2023-04-22T22:33:46.351Z,47.61
2023-04-22T22:36:38.997Z,47.66
2023-04-22T22:39:34.503Z,47.80
2023-04-22T22:42:29.037Z,47.93
2023-04-22T22:45:22.818Z,47.91
2023-04-22T22:48:05.787Z,48.25
2023-04-22T22:50:59.322Z,48.32
2023-04-22T22:53:54.314Z,48.31
2023-04-22T22:56:48.750Z,48.26
2023-04-22T22:59:21.493Z,48.39
2023-04-22T23:02:15.156Z,48.55
2023-04-22T23:05:11.758Z,48.43
2023-04-22T23:07:54.612Z,48.58
2023-04-22T23:10:47.756Z,48.73
2023-04-22T23:13:41.510Z,48.70
2023-04-22T23:16:39.975Z,48.81
2023-04-22T23:19:34.536Z,48.88
2023-04-22T23:22:27.958Z,48.91
2023-04-22T23:25:23.111Z,48.97
2023-04-22T23:28:07.107Z,49.02
2023-04-22T23:31:04.568Z,49.18
2023-04-22T23:33:53.583Z,49.24
2023-04-22T23:36:48.319Z,49.40
2023-04-22T23:39:43.609Z,49.38
2023-04-22T23:42:39.571Z,49.56
2023-04-22T23:45:34.308Z,49.61
2023-04-22T23:48:29.826Z,49.62
2023-04-22T23:51:44.095Z,49.79
2023-04-22T23:54:18.006Z,49.65
2023-04-22T23:57:13.765Z,49.97
